sensor_id;sensor_type;location;lat;lon;timestamp;pressure;altitude;pressure_sealevel;temperature;humidity
59063;BME280;44851;45.648;9.004;2023-11-19T00:01:31;99532.00;;;7.55;55.57
59063;BME280;44851;45.648;9.004;2023-11-19T00:03:58;99528.81;;;7.52;55.05
59063;BME280;44851;45.648;9.004;2023-11-19T00:06:23;99533.66;;;7.56;54.49
59063;BME280;44851;45.648;9.004;2023-11-19T00:08:50;99537.19;;;7.55;55.19
59063;BME280;44851;45.648;9.004;2023-11-19T00:11:16;99532.41;;;7.62;55.07
59063;BME280;44851;45.648;9.004;2023-11-19T00:13:41;99530.53;;;7.51;55.16
59063;BME280;44851;45.648;9.004;2023-11-19T00:16:07;99518.94;;;7.44;55.54
59063;BME280;44851;45.648;9.004;2023-11-19T00:18:33;99517.31;;;7.43;55.22
59063;BME280;44851;45.648;9.004;2023-11-19T00:20:58;99514.78;;;7.54;55.49
59063;BME280;44851;45.648;9.004;2023-11-19T00:23:23;99520.19;;;7.51;55.45
59063;BME280;44851;45.648;9.004;2023-11-19T00:25:49;99517.88;;;7.59;55.41
59063;BME280;44851;45.648;9.004;2023-11-19T00:28:14;99516.97;;;7.47;55.34
59063;BME280;44851;45.648;9.004;2023-11-19T00:30:40;99509.47;;;7.56;55.08
59063;BME280;44851;45.648;9.004;2023-11-19T00:33:08;99518.53;;;7.50;55.59
59063;BME280;44851;45.648;9.004;2023-11-19T00:35:33;99515.00;;;7.51;55.45
59063;BME280;44851;45.648;9.004;2023-11-19T00:37:59;99512.75;;;7.46;55.79
59063;BME280;44851;45.648;9.004;2023-11-19T00:40:24;99511.78;;;7.47;55.19
59063;BME280;44851;45.648;9.004;2023-11-19T00:42:50;99511.78;;;7.47;55.61
59063;BME280;44851;45.648;9.004;2023-11-19T00:45:15;99500.09;;;7.42;55.52
59063;BME280;44851;45.648;9.004;2023-11-19T00:47:40;99501.66;;;7.32;55.72
59063;BME280;44851;45.648;9.004;2023-11-19T00:50:07;99496.91;;;7.26;56.10
59063;BME280;44851;45.648;9.004;2023-11-19T00:52:34;99506.75;;;7.20;56.44
59063;BME280;44851;45.648;9.004;2023-11-19T00:55:00;99513.38;;;7.25;56.95
59063;BME280;44851;45.648;9.004;2023-11-19T00:57:26;99507.81;;;7.05;57.02
59063;BME280;44851;45.648;9.004;2023-11-19T00:59:52;99514.03;;;7.15;56.92
59063;BME280;44851;45.648;9.004;2023-11-19T01:02:17;99511.94;;;7.08;57.55
59063;BME280;44851;45.648;9.004;2023-11-19T01:04:43;99515.88;;;7.13;57.15
59063;BME280;44851;45.648;9.004;2023-11-19T01:07:09;99514.34;;;7.11;57.40
59063;BME280;44851;45.648;9.004;2023-11-19T01:09:38;99513.00;;;7.05;56.99
59063;BME280;44851;45.648;9.004;2023-11-19T01:12:04;99514.66;;;7.06;57.30
59063;BME280;44851;45.648;9.004;2023-11-19T01:14:30;99515.38;;;7.21;57.08
59063;BME280;44851;45.648;9.004;2023-11-19T01:16:55;99508.44;;;7.09;57.18
59063;BME280;44851;45.648;9.004;2023-11-19T01:19:22;99501.06;;;7.03;57.67
59063;BME280;44851;45.648;9.004;2023-11-19T01:21:48;99512.25;;;7.03;57.75
59063;BME280;44851;45.648;9.004;2023-11-19T01:24:14;99502.94;;;6.88;56.84
59063;BME280;44851;45.648;9.004;2023-11-19T01:26:39;99504.50;;;6.78;57.44
59063;BME280;44851;45.648;9.004;2023-11-19T01:29:13;99501.06;;;6.77;57.23
59063;BME280;44851;45.648;9.004;2023-11-19T01:31:43;99492.97;;;6.82;57.10
59063;BME280;44851;45.648;9.004;2023-11-19T01:34:09;99487.69;;;6.96;56.94
59063;BME280;44851;45.648;9.004;2023-11-19T01:36:35;99488.50;;;6.97;55.62
59063;BME280;44851;45.648;9.004;2023-11-19T01:39:00;99473.09;;;6.82;56.56
59063;BME280;44851;45.648;9.004;2023-11-19T01:41:26;99473.28;;;6.92;56.49
59063;BME280;44851;45.648;9.004;2023-11-19T01:43:51;99475.06;;;7.04;56.93
59063;BME280;44851;45.648;9.004;2023-11-19T01:46:17;99468.63;;;6.97;56.52
59063;BME280;44851;45.648;9.004;2023-11-19T01:48:44;99471.72;;;7.02;56.83
59063;BME280;44851;45.648;9.004;2023-11-19T01:51:12;99466.03;;;6.97;57.12
59063;BME280;44851;45.648;9.004;2023-11-19T01:53:38;99466.97;;;6.96;57.38
59063;BME280;44851;45.648;9.004;2023-11-19T01:56:07;99458.66;;;6.91;57.45
59063;BME280;44851;45.648;9.004;2023-11-19T01:58:35;99463.22;;;7.00;56.97
59063;BME280;44851;45.648;9.004;2023-11-19T02:01:01;99466.03;;;6.97;56.83
59063;BME280;44851;45.648;9.004;2023-11-19T02:03:30;99475.56;;;6.97;56.81
59063;BME280;44851;45.648;9.004;2023-11-19T02:05:56;99477.31;;;6.96;56.96
59063;BME280;44851;45.648;9.004;2023-11-19T02:08:22;99466.66;;;6.88;56.45
59063;BME280;44851;45.648;9.004;2023-11-19T02:10:47;99464.59;;;6.93;56.30
59063;BME280;44851;45.648;9.004;2023-11-19T02:13:13;99460.75;;;6.86;56.73
59063;BME280;44851;45.648;9.004;2023-11-19T02:15:40;99458.03;;;6.87;57.43
59063;BME280;44851;45.648;9.004;2023-11-19T02:18:23;99451.41;;;6.71;56.32
59063;BME280;44851;45.648;9.004;2023-11-19T02:20:50;99444.81;;;6.66;58.10
59063;BME280;44851;45.648;9.004;2023-11-19T02:23:16;99442.00;;;6.69;57.68
59063;BME280;44851;45.648;9.004;2023-11-19T02:25:42;99441.06;;;6.58;57.98
59063;BME280;44851;45.648;9.004;2023-11-19T02:28:08;99434.22;;;6.57;58.17
59063;BME280;44851;45.648;9.004;2023-11-19T02:30:37;99435.06;;;6.57;58.01
59063;BME280;44851;45.648;9.004;2023-11-19T02:33:02;99442.72;;;6.46;58.00
59063;BME280;44851;45.648;9.004;2023-11-19T02:35:31;99442.72;;;6.46;58.25
59063;BME280;44851;45.648;9.004;2023-11-19T02:37:57;99449.56;;;6.47;57.74
59063;BME280;44851;45.648;9.004;2023-11-19T02:40:24;99441.06;;;6.45;57.90
59063;BME280;44851;45.648;9.004;2023-11-19T02:42:53;99436.50;;;6.36;57.92
59063;BME280;44851;45.648;9.004;2023-11-19T02:45:19;99435.03;;;6.32;57.71
59063;BME280;44851;45.648;9.004;2023-11-19T02:47:44;99432.84;;;6.38;57.55
59063;BME280;44851;45.648;9.004;2023-11-19T02:50:11;99434.09;;;6.33;57.32
59063;BME280;44851;45.648;9.004;2023-11-19T02:52:45;99433.78;;;6.25;57.60
59063;BME280;44851;45.648;9.004;2023-11-19T02:55:11;99432.63;;;6.29;57.28
59063;BME280;44851;45.648;9.004;2023-11-19T02:57:39;99425.09;;;6.26;56.93
59063;BME280;44851;45.648;9.004;2023-11-19T03:00:19;99419.69;;;6.16;56.54
59063;BME280;44851;45.648;9.004;2023-11-19T03:02:48;99422.16;;;6.18;57.19
59063;BME280;44851;45.648;9.004;2023-11-19T03:05:24;99418.22;;;6.12;56.84
59063;BME280;44851;45.648;9.004;2023-11-19T03:07:50;99422.38;;;6.14;57.31
59063;BME280;44851;45.648;9.004;2023-11-19T03:10:15;99420.72;;;6.13;57.08
59063;BME280;44851;45.648;9.004;2023-11-19T03:12:41;99417.50;;;6.10;56.50
59063;BME280;44851;45.648;9.004;2023-11-19T03:15:07;99410.97;;;6.04;56.99
59063;BME280;44851;45.648;9.004;2023-11-19T03:17:41;99404.78;;;6.20;56.86
59063;BME280;44851;45.648;9.004;2023-11-19T03:20:09;99403.75;;;6.09;57.02
59063;BME280;44851;45.648;9.004;2023-11-19T03:22:39;99401.69;;;6.14;56.70
59063;BME280;44851;45.648;9.004;2023-11-19T03:25:07;99405.25;;;5.99;57.38
59063;BME280;44851;45.648;9.004;2023-11-19T03:27:34;99415.09;;;5.94;57.15
59063;BME280;44851;45.648;9.004;2023-11-19T03:30:01;99399.38;;;5.97;57.65
59063;BME280;44851;45.648;9.004;2023-11-19T03:32:26;99412.38;;;5.96;57.51
59063;BME280;44851;45.648;9.004;2023-11-19T03:34:52;99410.41;;;5.86;57.85
59063;BME280;44851;45.648;9.004;2023-11-19T03:37:18;99413.28;;;5.82;58.03
59063;BME280;44851;45.648;9.004;2023-11-19T03:39:43;99408.09;;;5.82;58.39
59063;BME280;44851;45.648;9.004;2023-11-19T03:42:08;99407.63;;;5.89;57.85
59063;BME280;44851;45.648;9.004;2023-11-19T03:44:34;99406.22;;;5.84;58.03
59063;BME280;44851;45.648;9.004;2023-11-19T03:46:59;99410.41;;;5.86;58.56
59063;BME280;44851;45.648;9.004;2023-11-19T03:49:24;99398.09;;;5.90;58.20
59063;BME280;44851;45.648;9.004;2023-11-19T03:51:50;99403.66;;;5.84;58.13
59063;BME280;44851;45.648;9.004;2023-11-19T03:54:15;99400.13;;;5.85;58.11
59063;BME280;44851;45.648;9.004;2023-11-19T03:56:41;99390.91;;;5.81;58.85
59063;BME280;44851;45.648;9.004;2023-11-19T03:59:06;99389.50;;;5.89;58.66
59063;BME280;44851;45.648;9.004;2023-11-19T04:01:32;99387.59;;;5.79;58.22
59063;BME280;44851;45.648;9.004;2023-11-19T04:03:57;99378.19;;;5.78;58.78
59063;BME280;44851;45.648;9.004;2023-11-19T04:06:22;99389.63;;;5.88;58.33
59063;BME280;44851;45.648;9.004;2023-11-19T04:08:48;99385.94;;;5.78;58.44
59063;BME280;44851;45.648;9.004;2023-11-19T04:11:14;99386.53;;;5.69;58.86
59063;BME280;44851;45.648;9.004;2023-11-19T04:13:40;99370.28;;;5.67;58.34
59063;BME280;44851;45.648;9.004;2023-11-19T04:16:05;99370.91;;;5.70;58.75
59063;BME280;44851;45.648;9.004;2023-11-19T04:18:31;99364.91;;;5.70;58.66
59063;BME280;44851;45.648;9.004;2023-11-19T04:20:57;99368.25;;;5.72;58.63
59063;BME280;44851;45.648;9.004;2023-11-19T04:23:22;99363.06;;;5.72;58.83
59063;BME280;44851;45.648;9.004;2023-11-19T04:25:50;99371.94;;;5.68;58.57
59063;BME280;44851;45.648;9.004;2023-11-19T04:28:16;99354.97;;;5.63;58.38
59063;BME280;44851;45.648;9.004;2023-11-19T04:30:41;99358.06;;;5.56;58.65
59063;BME280;44851;45.648;9.004;2023-11-19T04:33:06;99362.94;;;5.60;58.43
59063;BME280;44851;45.648;9.004;2023-11-19T04:35:32;99365.91;;;5.54;57.35
59063;BME280;44851;45.648;9.004;2023-11-19T04:37:57;99368.56;;;5.53;57.69
59063;BME280;44851;45.648;9.004;2023-11-19T04:40:23;99381.91;;;5.47;57.64
59063;BME280;44851;45.648;9.004;2023-11-19T04:42:48;99369.47;;;5.39;57.86
59063;BME280;44851;45.648;9.004;2023-11-19T04:45:14;99373.50;;;5.43;57.35
59063;BME280;44851;45.648;9.004;2023-11-19T04:47:41;99367.06;;;5.36;57.46
59063;BME280;44851;45.648;9.004;2023-11-19T04:50:07;99352.50;;;5.35;57.67
59063;BME280;44851;45.648;9.004;2023-11-19T04:52:37;99361.72;;;5.39;57.55
59063;BME280;44851;45.648;9.004;2023-11-19T04:55:03;99360.03;;;5.38;57.58
59063;BME280;44851;45.648;9.004;2023-11-19T04:57:29;99359.13;;;5.39;57.47
59063;BME280;44851;45.648;9.004;2023-11-19T04:59:54;99356.56;;;5.39;57.31
59063;BME280;44851;45.648;9.004;2023-11-19T05:02:20;99350.78;;;5.48;57.56
59063;BME280;44851;45.648;9.004;2023-11-19T05:04:45;99340.84;;;5.42;57.53
59063;BME280;44851;45.648;9.004;2023-11-19T05:07:12;99352.81;;;5.43;57.54
59063;BME280;44851;45.648;9.004;2023-11-19T05:09:37;99349.69;;;5.38;57.43
59063;BME280;44851;45.648;9.004;2023-11-19T05:12:03;99355.09;;;5.35;57.60
59063;BME280;44851;45.648;9.004;2023-11-19T05:14:28;99340.94;;;5.41;57.84
59063;BME280;44851;45.648;9.004;2023-11-19T05:16:54;99344.34;;;5.41;57.99
59063;BME280;44851;45.648;9.004;2023-11-19T05:19:19;99338.34;;;5.41;57.90
59063;BME280;44851;45.648;9.004;2023-11-19T05:21:44;99334.00;;;5.41;57.68
59063;BME280;44851;45.648;9.004;2023-11-19T05:24:10;99327.19;;;5.40;57.74
59063;BME280;44851;45.648;9.004;2023-11-19T05:26:36;99330.06;;;5.35;57.58
59063;BME280;44851;45.648;9.004;2023-11-19T05:29:02;99325.81;;;5.34;57.94
59063;BME280;44851;45.648;9.004;2023-11-19T05:31:27;99334.25;;;5.24;57.42
59063;BME280;44851;45.648;9.004;2023-11-19T05:33:53;99328.41;;;5.34;57.76
59063;BME280;44851;45.648;9.004;2023-11-19T05:36:18;99320.97;;;5.43;57.62
59063;BME280;44851;45.648;9.004;2023-11-19T05:38:43;99323.84;;;5.38;57.68
59063;BME280;44851;45.648;9.004;2023-11-19T05:41:10;99323.25;;;5.34;58.21
59063;BME280;44851;45.648;9.004;2023-11-19T05:43:35;99312.06;;;5.34;57.28
59063;BME280;44851;45.648;9.004;2023-11-19T05:46:01;99307.91;;;5.31;57.75
59063;BME280;44851;45.648;9.004;2023-11-19T05:48:29;99309.88;;;5.28;58.00
59063;BME280;44851;45.648;9.004;2023-11-19T05:50:54;99306.97;;;5.32;57.87
59063;BME280;44851;45.648;9.004;2023-11-19T05:53:20;99303.50;;;5.33;57.80
59063;BME280;44851;45.648;9.004;2023-11-19T05:55:45;99307.84;;;5.33;58.38
59063;BME280;44851;45.648;9.004;2023-11-19T05:58:26;99303.78;;;5.29;57.97
59063;BME280;44851;45.648;9.004;2023-11-19T06:00:56;99310.34;;;5.20;58.10
59063;BME280;44851;45.648;9.004;2023-11-19T06:03:22;99308.59;;;5.21;58.80
59063;BME280;44851;45.648;9.004;2023-11-19T06:05:48;99306.03;;;5.21;58.93
59063;BME280;44851;45.648;9.004;2023-11-19T06:08:14;99295.28;;;5.27;58.34
59063;BME280;44851;45.648;9.004;2023-11-19T06:10:40;99298.25;;;5.21;58.37
59063;BME280;44851;45.648;9.004;2023-11-19T06:13:06;99311.75;;;5.11;58.83
59063;BME280;44851;45.648;9.004;2023-11-19T06:15:32;99308.28;;;5.13;58.67
59063;BME280;44851;45.648;9.004;2023-11-19T06:17:58;99312.41;;;5.15;58.80
59063;BME280;44851;45.648;9.004;2023-11-19T06:20:26;99313.44;;;5.13;59.01
59063;BME280;44851;45.648;9.004;2023-11-19T06:22:54;99299.59;;;5.14;58.99
59063;BME280;44851;45.648;9.004;2023-11-19T06:25:19;99291.31;;;5.08;58.67
59063;BME280;44851;45.648;9.004;2023-11-19T06:27:44;99299.06;;;5.08;58.56
59063;BME280;44851;45.648;9.004;2023-11-19T06:30:10;99297.25;;;4.96;58.50
59063;BME280;44851;45.648;9.004;2023-11-19T06:32:36;99297.25;;;4.96;58.79
59063;BME280;44851;45.648;9.004;2023-11-19T06:35:02;99299.09;;;4.94;58.46
59063;BME280;44851;45.648;9.004;2023-11-19T06:37:29;99309.41;;;4.94;58.62
59063;BME280;44851;45.648;9.004;2023-11-19T06:39:55;99302.59;;;4.93;58.48
59063;BME280;44851;45.648;9.004;2023-11-19T06:42:20;99296.22;;;4.99;58.39
59063;BME280;44851;45.648;9.004;2023-11-19T06:44:46;99302.41;;;4.96;58.00
59063;BME280;44851;45.648;9.004;2023-11-19T06:47:11;99307.59;;;4.96;58.16
59063;BME280;44851;45.648;9.004;2023-11-19T06:49:36;99311.63;;;5.00;57.60
59063;BME280;44851;45.648;9.004;2023-11-19T06:52:02;99305.53;;;5.01;57.60
59063;BME280;44851;45.648;9.004;2023-11-19T06:54:28;99301.44;;;5.11;57.78
59063;BME280;44851;45.648;9.004;2023-11-19T06:56:53;99296.38;;;5.10;57.36
59063;BME280;44851;45.648;9.004;2023-11-19T06:59:18;99299.59;;;5.14;57.69
59063;BME280;44851;45.648;9.004;2023-11-19T07:01:44;99301.06;;;5.18;57.54
59063;BME280;44851;45.648;9.004;2023-11-19T07:04:12;99311.75;;;5.11;57.53
59063;BME280;44851;45.648;9.004;2023-11-19T07:06:38;99315.75;;;5.17;58.13
59063;BME280;44851;45.648;9.004;2023-11-19T07:09:06;99309.72;;;5.17;57.91
59063;BME280;44851;45.648;9.004;2023-11-19T07:11:38;99304.75;;;5.14;58.55
59063;BME280;44851;45.648;9.004;2023-11-19T07:14:05;99304.47;;;5.18;58.36
59063;BME280;44851;45.648;9.004;2023-11-19T07:16:32;99307.31;;;5.28;57.93
59063;BME280;44851;45.648;9.004;2023-11-19T07:19:00;99307.50;;;5.25;58.40
59063;BME280;44851;45.648;9.004;2023-11-19T07:21:25;99317.44;;;5.31;58.01
59063;BME280;44851;45.648;9.004;2023-11-19T07:23:53;99325.06;;;5.32;58.24
59063;BME280;44851;45.648;9.004;2023-11-19T07:26:19;99320.75;;;5.33;57.90
59063;BME280;44851;45.648;9.004;2023-11-19T07:28:44;99327.59;;;5.34;58.15
59063;BME280;44851;45.648;9.004;2023-11-19T07:31:10;99320.53;;;5.36;58.64
59063;BME280;44851;45.648;9.004;2023-11-19T07:33:36;99318.31;;;5.44;58.67
59063;BME280;44851;45.648;9.004;2023-11-19T07:36:01;99307.97;;;5.44;58.51
59063;BME280;44851;45.648;9.004;2023-11-19T07:38:27;99303.34;;;5.49;58.67
59063;BME280;44851;45.648;9.004;2023-11-19T07:40:52;99309.81;;;5.42;58.54
59063;BME280;44851;45.648;9.004;2023-11-19T07:43:17;99314.94;;;5.56;58.55
59063;BME280;44851;45.648;9.004;2023-11-19T07:45:43;99310.28;;;5.61;58.75
59063;BME280;44851;45.648;9.004;2023-11-19T07:48:11;99313.16;;;5.57;59.54
59063;BME280;44851;45.648;9.004;2023-11-19T07:50:38;99306.66;;;5.64;59.71
59063;BME280;44851;45.648;9.004;2023-11-19T07:53:04;99299.34;;;5.71;59.20
59063;BME280;44851;45.648;9.004;2023-11-19T07:55:29;99296.66;;;5.72;58.61
59063;BME280;44851;45.648;9.004;2023-11-19T07:57:56;99311.13;;;5.75;58.04
59063;BME280;44851;45.648;9.004;2023-11-19T08:00:21;99308.88;;;5.83;57.72
59063;BME280;44851;45.648;9.004;2023-11-19T08:02:46;99319.22;;;5.83;59.06
59063;BME280;44851;45.648;9.004;2023-11-19T08:05:12;99320.88;;;5.84;58.83
59063;BME280;44851;45.648;9.004;2023-11-19T08:07:37;99319.47;;;5.93;60.11
59063;BME280;44851;45.648;9.004;2023-11-19T08:10:04;99326.09;;;6.09;58.57
59063;BME280;44851;45.648;9.004;2023-11-19T08:12:30;99318.63;;;6.18;59.50
59063;BME280;44851;45.648;9.004;2023-11-19T08:14:56;99299.47;;;6.33;58.10
59063;BME280;44851;45.648;9.004;2023-11-19T08:17:23;99315.19;;;6.55;56.82
59063;BME280;44851;45.648;9.004;2023-11-19T08:19:49;99311.53;;;6.71;55.59
59063;BME280;44851;45.648;9.004;2023-11-19T08:22:14;99307.84;;;6.99;55.46
59063;BME280;44851;45.648;9.004;2023-11-19T08:24:41;99312.34;;;7.20;57.55
59063;BME280;44851;45.648;9.004;2023-11-19T08:27:07;99313.03;;;7.46;56.41
59063;BME280;44851;45.648;9.004;2023-11-19T08:29:32;99315.19;;;7.88;58.63
59063;BME280;44851;45.648;9.004;2023-11-19T08:32:00;99309.13;;;8.34;55.80
59063;BME280;44851;45.648;9.004;2023-11-19T08:34:25;99306.28;;;8.70;56.78
59063;BME280;44851;45.648;9.004;2023-11-19T08:36:51;99311.19;;;9.07;55.28
59063;BME280;44851;45.648;9.004;2023-11-19T08:39:18;99318.91;;;9.29;52.80
59063;BME280;44851;45.648;9.004;2023-11-19T08:41:44;99319.91;;;10.02;55.73
59063;BME280;44851;45.648;9.004;2023-11-19T08:44:09;99318.41;;;10.30;56.13
59063;BME280;44851;45.648;9.004;2023-11-19T08:46:34;99322.31;;;10.46;54.39
59063;BME280;44851;45.648;9.004;2023-11-19T08:49:00;99324.53;;;10.71;53.78
59063;BME280;44851;45.648;9.004;2023-11-19T08:51:25;99331.16;;;10.95;53.25
59063;BME280;44851;45.648;9.004;2023-11-19T08:53:51;99337.97;;;11.26;53.96
59063;BME280;44851;45.648;9.004;2023-11-19T08:56:16;99315.56;;;11.33;52.34
59063;BME280;44851;45.648;9.004;2023-11-19T08:58:42;99310.22;;;11.64;51.67
59063;BME280;44851;45.648;9.004;2023-11-19T09:01:07;99306.78;;;11.73;50.47
59063;BME280;44851;45.648;9.004;2023-11-19T09:03:33;99305.81;;;11.64;49.94
59063;BME280;44851;45.648;9.004;2023-11-19T09:06:00;99305.25;;;11.61;47.87
59063;BME280;44851;45.648;9.004;2023-11-19T09:08:25;99301.81;;;11.70;48.77
59063;BME280;44851;45.648;9.004;2023-11-19T09:10:50;99305.25;;;11.80;50.52
59063;BME280;44851;45.648;9.004;2023-11-19T09:13:16;99323.13;;;11.75;50.89
59063;BME280;44851;45.648;9.004;2023-11-19T09:15:41;99336.59;;;11.61;51.58
59063;BME280;44851;45.648;9.004;2023-11-19T09:18:07;99312.28;;;11.70;50.48
59063;BME280;44851;45.648;9.004;2023-11-19T09:20:33;99310.38;;;11.72;49.75
59063;BME280;44851;45.648;9.004;2023-11-19T09:23:03;99312.41;;;11.59;49.11
59063;BME280;44851;45.648;9.004;2023-11-19T09:25:28;99308.28;;;12.05;49.19
59063;BME280;44851;45.648;9.004;2023-11-19T09:27:54;99323.88;;;12.24;48.87
59063;BME280;44851;45.648;9.004;2023-11-19T09:30:19;99324.41;;;12.37;48.97
59063;BME280;44851;45.648;9.004;2023-11-19T09:32:45;99315.00;;;12.44;49.04
59063;BME280;44851;45.648;9.004;2023-11-19T09:35:11;99316.25;;;12.40;47.56
59063;BME280;44851;45.648;9.004;2023-11-19T09:37:38;99312.00;;;12.39;48.19
59063;BME280;44851;45.648;9.004;2023-11-19T09:40:05;99297.44;;;12.37;48.78
59063;BME280;44851;45.648;9.004;2023-11-19T09:42:41;99301.84;;;12.36;48.31
59063;BME280;44851;45.648;9.004;2023-11-19T09:45:13;99309.31;;;12.31;48.15
59063;BME280;44851;45.648;9.004;2023-11-19T09:47:39;99314.34;;;12.42;48.41
59063;BME280;44851;45.648;9.004;2023-11-19T09:50:05;99308.34;;;12.60;47.37
59063;BME280;44851;45.648;9.004;2023-11-19T09:52:31;99307.06;;;13.19;46.45
59063;BME280;44851;45.648;9.004;2023-11-19T09:54:56;99316.81;;;13.27;45.73
59063;BME280;44851;45.648;9.004;2023-11-19T09:57:22;99299.53;;;13.16;46.17
59063;BME280;44851;45.648;9.004;2023-11-19T09:59:47;99300.56;;;13.23;46.50
59063;BME280;44851;45.648;9.004;2023-11-19T10:02:14;99293.44;;;13.15;46.15
59063;BME280;44851;45.648;9.004;2023-11-19T10:04:40;99286.31;;;13.08;46.28
59063;BME280;44851;45.648;9.004;2023-11-19T10:07:07;99296.22;;;13.14;46.17
59063;BME280;44851;45.648;9.004;2023-11-19T10:09:32;99276.31;;;13.57;46.36
59063;BME280;44851;45.648;9.004;2023-11-19T10:11:57;99280.94;;;14.07;45.59
59063;BME280;44851;45.648;9.004;2023-11-19T10:14:23;99275.63;;;14.50;45.05
59063;BME280;44851;45.648;9.004;2023-11-19T10:16:49;99272.88;;;14.68;44.56
59063;BME280;44851;45.648;9.004;2023-11-19T10:19:23;99281.22;;;14.64;42.43
59063;BME280;44851;45.648;9.004;2023-11-19T10:21:48;99289.09;;;14.64;45.08
59063;BME280;44851;45.648;9.004;2023-11-19T10:24:14;99291.66;;;14.47;44.57
59063;BME280;44851;45.648;9.004;2023-11-19T10:26:40;99291.09;;;14.70;44.45
59063;BME280;44851;45.648;9.004;2023-11-19T10:29:07;99282.88;;;14.65;44.34
59063;BME280;44851;45.648;9.004;2023-11-19T10:31:32;99283.91;;;14.80;44.06
59063;BME280;44851;45.648;9.004;2023-11-19T10:33:57;99272.16;;;14.92;42.33
59063;BME280;44851;45.648;9.004;2023-11-19T10:36:37;99268.78;;;14.66;41.05
59063;BME280;44851;45.648;9.004;2023-11-19T10:39:02;99266.59;;;14.53;43.23
59063;BME280;44851;45.648;9.004;2023-11-19T10:41:31;99261.28;;;14.71;41.18
59063;BME280;44851;45.648;9.004;2023-11-19T10:43:58;99257.25;;;15.17;40.58
59063;BME280;44851;45.648;9.004;2023-11-19T10:46:36;99258.06;;;15.18;39.98
59063;BME280;44851;45.648;9.004;2023-11-19T10:49:01;99239.06;;;15.48;41.98
59063;BME280;44851;45.648;9.004;2023-11-19T10:51:28;99222.28;;;15.74;39.89
59063;BME280;44851;45.648;9.004;2023-11-19T10:53:56;99226.91;;;15.72;39.47
59063;BME280;44851;45.648;9.004;2023-11-19T10:56:25;99227.03;;;15.87;39.12
59063;BME280;44851;45.648;9.004;2023-11-19T10:58:54;99241.34;;;15.76;38.10
59063;BME280;44851;45.648;9.004;2023-11-19T11:01:20;99235.53;;;16.05;37.53
59063;BME280;44851;45.648;9.004;2023-11-19T11:03:50;99242.66;;;15.88;37.86
59063;BME280;44851;45.648;9.004;2023-11-19T11:06:16;99242.22;;;16.32;37.72
59063;BME280;44851;45.648;9.004;2023-11-19T11:08:43;99233.31;;;16.33;36.87
59063;BME280;44851;45.648;9.004;2023-11-19T11:11:11;99231.25;;;16.51;36.31
59063;BME280;44851;45.648;9.004;2023-11-19T11:13:41;99228.94;;;16.56;36.30
59063;BME280;44851;45.648;9.004;2023-11-19T11:16:07;99231.41;;;16.58;34.98
59063;BME280;44851;45.648;9.004;2023-11-19T11:18:33;99221.41;;;16.53;35.79
59063;BME280;44851;45.648;9.004;2023-11-19T11:21:14;99221.28;;;16.39;33.12
59063;BME280;44851;45.648;9.004;2023-11-19T11:26:29;99211.50;;;16.55;32.94
59063;BME280;44851;45.648;9.004;2023-11-19T11:29:04;99205.34;;;16.71;34.45
59063;BME280;44851;45.648;9.004;2023-11-19T11:37:14;99194.78;;;16.48;35.15
59063;BME280;44851;45.648;9.004;2023-11-19T11:39:43;99192.09;;;16.56;34.87
59063;BME280;44851;45.648;9.004;2023-11-19T11:42:31;99188.00;;;16.54;34.92
59063;BME280;44851;45.648;9.004;2023-11-19T11:50:15;99191.13;;;17.11;35.51
59063;BME280;44851;45.648;9.004;2023-11-19T11:55:52;99185.72;;;17.05;35.37
59063;BME280;44851;45.648;9.004;2023-11-19T11:58:30;99182.41;;;17.03;33.92
59063;BME280;44851;45.648;9.004;2023-11-19T12:00:57;99187.88;;;17.24;34.86
59063;BME280;44851;45.648;9.004;2023-11-19T12:03:23;99178.25;;;17.17;34.00
59063;BME280;44851;45.648;9.004;2023-11-19T12:05:49;99167.84;;;16.92;34.32
59063;BME280;44851;45.648;9.004;2023-11-19T12:08:18;99173.88;;;17.01;34.78
59063;BME280;44851;45.648;9.004;2023-11-19T12:10:49;99165.09;;;17.08;34.09
59063;BME280;44851;45.648;9.004;2023-11-19T12:13:15;99164.63;;;17.28;32.94
59063;BME280;44851;45.648;9.004;2023-11-19T12:18:23;99169.19;;;17.34;34.20
59063;BME280;44851;45.648;9.004;2023-11-19T12:20:48;99157.38;;;17.30;32.75
59063;BME280;44851;45.648;9.004;2023-11-19T12:23:14;99158.41;;;17.21;34.10
59063;BME280;44851;45.648;9.004;2023-11-19T12:25:40;99156.78;;;17.20;33.81
59063;BME280;44851;45.648;9.004;2023-11-19T12:28:06;99157.03;;;17.33;33.57
59063;BME280;44851;45.648;9.004;2023-11-19T12:30:36;99163.00;;;17.27;33.70
59063;BME280;44851;45.648;9.004;2023-11-19T12:33:08;99153.41;;;16.88;33.90
59063;BME280;44851;45.648;9.004;2023-11-19T12:35:41;99160.28;;;17.35;35.53
59063;BME280;44851;45.648;9.004;2023-11-19T12:38:07;99148.66;;;17.44;35.86
59063;BME280;44851;45.648;9.004;2023-11-19T12:40:32;99154.81;;;17.36;34.89
59063;BME280;44851;45.648;9.004;2023-11-19T12:42:58;99152.91;;;17.30;34.66
59063;BME280;44851;45.648;9.004;2023-11-19T12:45:34;99140.03;;;17.50;35.69
59063;BME280;44851;45.648;9.004;2023-11-19T12:48:07;99132.13;;;17.50;35.67
59063;BME280;44851;45.648;9.004;2023-11-19T12:50:58;99126.41;;;17.61;34.81
59063;BME280;44851;45.648;9.004;2023-11-19T12:53:27;99134.69;;;17.58;35.03
59063;BME280;44851;45.648;9.004;2023-11-19T12:55:55;99144.50;;;17.64;35.64
59063;BME280;44851;45.648;9.004;2023-11-19T12:58:34;99134.38;;;17.24;34.25
59063;BME280;44851;45.648;9.004;2023-11-19T13:01:03;99123.03;;;17.00;35.15
59063;BME280;44851;45.648;9.004;2023-11-19T13:03:30;99130.91;;;16.63;35.93
59063;BME280;44851;45.648;9.004;2023-11-19T13:06:07;99124.94;;;16.69;36.89
59063;BME280;44851;45.648;9.004;2023-11-19T13:11:04;99121.47;;;16.91;37.42
59063;BME280;44851;45.648;9.004;2023-11-19T13:13:31;99118.75;;;16.99;36.93
59063;BME280;44851;45.648;9.004;2023-11-19T13:16:04;99117.75;;;16.63;38.38
59063;BME280;44851;45.648;9.004;2023-11-19T13:18:34;99117.66;;;16.71;37.58
59063;BME280;44851;45.648;9.004;2023-11-19T13:21:00;99117.91;;;16.84;38.26
59063;BME280;44851;45.648;9.004;2023-11-19T13:23:25;99116.22;;;16.68;37.84
59063;BME280;44851;45.648;9.004;2023-11-19T13:25:51;99108.13;;;16.70;36.92
59063;BME280;44851;45.648;9.004;2023-11-19T13:28:16;99106.84;;;16.66;36.43